sensor_id;sensor_type;location;lat;lon;timestamp;temperature;humidity
15217;DHT22;7711;46.634;14.318;2023-11-21T00:01:10;2.10;1.00
15217;DHT22;7711;46.634;14.318;2023-11-21T00:03:37;2.10;1.00
15217;DHT22;7711;46.634;14.318;2023-11-21T00:06:05;2.10;1.00
15217;DHT22;7711;46.634;14.318;2023-11-21T00:08:35;2.20;1.00
15217;DHT22;7711;46.634;14.318;2023-11-21T00:11:03;2.20;1.00
15217;DHT22;7711;46.634;14.318;2023-11-21T00:13:31;2.20;1.00
15217;DHT22;7711;46.634;14.318;2023-11-21T00:15:58;2.20;1.00
15217;DHT22;7711;46.634;14.318;2023-11-21T00:18:25;2.20;1.00
15217;DHT22;7711;46.634;14.318;2023-11-21T00:20:52;2.20;99.90
15217;DHT22;7711;46.634;14.318;2023-11-21T00:23:19;2.20;99.90
15217;DHT22;7711;46.634;14.318;2023-11-21T00:25:48;2.20;99.90
15217;DHT22;7711;46.634;14.318;2023-11-21T00:28:15;2.20;99.90
15217;DHT22;7711;46.634;14.318;2023-11-21T00:30:42;2.10;99.90
15217;DHT22;7711;46.634;14.318;2023-11-21T00:33:08;2.10;99.90
15217;DHT22;7711;46.634;14.318;2023-11-21T00:35:35;2.10;99.90
15217;DHT22;7711;46.634;14.318;2023-11-21T00:38:02;2.10;99.90
15217;DHT22;7711;46.634;14.318;2023-11-21T00:40:30;2.10;99.90
15217;DHT22;7711;46.634;14.318;2023-11-21T00:42:58;2.10;99.90
15217;DHT22;7711;46.634;14.318;2023-11-21T00:45:25;2.10;99.90
15217;DHT22;7711;46.634;14.318;2023-11-21T00:47:52;2.00;99.90
15217;DHT22;7711;46.634;14.318;2023-11-21T00:50:19;2.00;99.90
15217;DHT22;7711;46.634;14.318;2023-11-21T00:52:46;2.00;99.90
15217;DHT22;7711;46.634;14.318;2023-11-21T00:55:13;2.00;99.90
15217;DHT22;7711;46.634;14.318;2023-11-21T00:57:40;2.00;99.90
15217;DHT22;7711;46.634;14.318;2023-11-21T01:00:09;2.00;99.90
15217;DHT22;7711;46.634;14.318;2023-11-21T01:02:42;2.00;99.90
15217;DHT22;7711;46.634;14.318;2023-11-21T01:05:10;1.90;99.90
15217;DHT22;7711;46.634;14.318;2023-11-21T01:07:37;1.90;99.90
15217;DHT22;7711;46.634;14.318;2023-11-21T01:10:04;1.90;99.90
15217;DHT22;7711;46.634;14.318;2023-11-21T01:12:33;1.90;99.90
15217;DHT22;7711;46.634;14.318;2023-11-21T01:15:01;2.00;1.00
15217;DHT22;7711;46.634;14.318;2023-11-21T01:17:29;1.90;1.00
15217;DHT22;7711;46.634;14.318;2023-11-21T01:19:56;1.90;1.00
15217;DHT22;7711;46.634;14.318;2023-11-21T01:22:23;2.00;1.00
15217;DHT22;7711;46.634;14.318;2023-11-21T01:24:53;1.90;1.00
15217;DHT22;7711;46.634;14.318;2023-11-21T01:27:20;1.90;1.00
15217;DHT22;7711;46.634;14.318;2023-11-21T01:29:47;1.90;1.00
15217;DHT22;7711;46.634;14.318;2023-11-21T01:32:14;1.90;1.00
15217;DHT22;7711;46.634;14.318;2023-11-21T01:34:42;1.90;1.00
15217;DHT22;7711;46.634;14.318;2023-11-21T01:37:09;2.00;1.00
15217;DHT22;7711;46.634;14.318;2023-11-21T01:39:37;2.00;1.00
15217;DHT22;7711;46.634;14.318;2023-11-21T01:42:05;2.00;1.00
15217;DHT22;7711;46.634;14.318;2023-11-21T01:44:33;2.00;1.00
15217;DHT22;7711;46.634;14.318;2023-11-21T01:47:01;2.00;1.00
15217;DHT22;7711;46.634;14.318;2023-11-21T01:49:31;2.10;1.00
15217;DHT22;7711;46.634;14.318;2023-11-21T01:52:00;2.10;1.00
15217;DHT22;7711;46.634;14.318;2023-11-21T01:54:29;2.00;1.00
15217;DHT22;7711;46.634;14.318;2023-11-21T01:56:57;2.10;1.00
15217;DHT22;7711;46.634;14.318;2023-11-21T01:59:33;2.00;99.90
15217;DHT22;7711;46.634;14.318;2023-11-21T02:02:01;2.10;1.00
15217;DHT22;7711;46.634;14.318;2023-11-21T02:04:28;2.20;1.00
15217;DHT22;7711;46.634;14.318;2023-11-21T02:06:55;2.20;1.00
15217;DHT22;7711;46.634;14.318;2023-11-21T02:09:26;2.30;99.90
15217;DHT22;7711;46.634;14.318;2023-11-21T02:11:53;2.20;99.90
15217;DHT22;7711;46.634;14.318;2023-11-21T02:14:20;2.30;99.90
15217;DHT22;7711;46.634;14.318;2023-11-21T02:16:48;2.30;99.90
15217;DHT22;7711;46.634;14.318;2023-11-21T02:19:18;2.30;99.90
15217;DHT22;7711;46.634;14.318;2023-11-21T02:21:49;2.40;99.90
15217;DHT22;7711;46.634;14.318;2023-11-21T02:24:19;2.40;99.90
15217;DHT22;7711;46.634;14.318;2023-11-21T02:26:46;2.40;99.90
15217;DHT22;7711;46.634;14.318;2023-11-21T02:29:13;2.40;99.90
15217;DHT22;7711;46.634;14.318;2023-11-21T02:31:43;2.40;99.90
15217;DHT22;7711;46.634;14.318;2023-11-21T02:34:13;2.50;99.90
15217;DHT22;7711;46.634;14.318;2023-11-21T02:36:40;2.50;99.90
15217;DHT22;7711;46.634;14.318;2023-11-21T02:39:08;2.50;99.90
15217;DHT22;7711;46.634;14.318;2023-11-21T02:41:37;2.50;99.90
15217;DHT22;7711;46.634;14.318;2023-11-21T02:44:04;2.40;99.90
15217;DHT22;7711;46.634;14.318;2023-11-21T02:46:33;2.50;99.90
15217;DHT22;7711;46.634;14.318;2023-11-21T02:49:00;2.50;99.90
15217;DHT22;7711;46.634;14.318;2023-11-21T02:51:27;2.50;99.90
15217;DHT22;7711;46.634;14.318;2023-11-21T02:53:55;2.50;99.90
15217;DHT22;7711;46.634;14.318;2023-11-21T02:56:24;2.40;99.90
15217;DHT22;7711;46.634;14.318;2023-11-21T02:58:55;2.50;99.90
15217;DHT22;7711;46.634;14.318;2023-11-21T03:01:22;2.50;99.90
15217;DHT22;7711;46.634;14.318;2023-11-21T03:03:50;2.50;99.90
15217;DHT22;7711;46.634;14.318;2023-11-21T03:06:17;2.50;99.90
15217;DHT22;7711;46.634;14.318;2023-11-21T03:08:44;2.50;99.90
15217;DHT22;7711;46.634;14.318;2023-11-21T03:11:12;2.50;99.90
15217;DHT22;7711;46.634;14.318;2023-11-21T03:13:39;2.50;99.90
15217;DHT22;7711;46.634;14.318;2023-11-21T03:16:09;2.50;99.90
15217;DHT22;7711;46.634;14.318;2023-11-21T03:18:36;2.50;99.90
15217;DHT22;7711;46.634;14.318;2023-11-21T03:21:03;2.50;99.90
15217;DHT22;7711;46.634;14.318;2023-11-21T03:23:31;2.50;99.90
15217;DHT22;7711;46.634;14.318;2023-11-21T03:25:58;2.50;99.90
15217;DHT22;7711;46.634;14.318;2023-11-21T03:28:25;2.60;99.90
15217;DHT22;7711;46.634;14.318;2023-11-21T03:30:52;2.50;99.90
15217;DHT22;7711;46.634;14.318;2023-11-21T03:33:20;2.60;99.90
15217;DHT22;7711;46.634;14.318;2023-11-21T03:35:47;2.60;99.90
15217;DHT22;7711;46.634;14.318;2023-11-21T03:38:15;2.60;99.90
15217;DHT22;7711;46.634;14.318;2023-11-21T03:40:42;2.60;99.90
15217;DHT22;7711;46.634;14.318;2023-11-21T03:43:09;2.60;99.90
15217;DHT22;7711;46.634;14.318;2023-11-21T03:45:36;2.60;1.00
15217;DHT22;7711;46.634;14.318;2023-11-21T03:48:06;2.70;1.00
15217;DHT22;7711;46.634;14.318;2023-11-21T03:50:34;2.70;1.00
15217;DHT22;7711;46.634;14.318;2023-11-21T03:53:01;2.70;1.00
15217;DHT22;7711;46.634;14.318;2023-11-21T03:55:30;2.70;1.00
15217;DHT22;7711;46.634;14.318;2023-11-21T03:57:57;2.70;1.00
15217;DHT22;7711;46.634;14.318;2023-11-21T04:00:24;2.70;1.00
15217;DHT22;7711;46.634;14.318;2023-11-21T04:02:52;2.60;1.00
15217;DHT22;7711;46.634;14.318;2023-11-21T04:05:20;2.70;1.00
15217;DHT22;7711;46.634;14.318;2023-11-21T04:07:49;2.70;1.00
15217;DHT22;7711;46.634;14.318;2023-11-21T04:10:17;2.60;1.00
15217;DHT22;7711;46.634;14.318;2023-11-21T04:12:44;2.70;1.00
15217;DHT22;7711;46.634;14.318;2023-11-21T04:15:12;2.70;1.00
15217;DHT22;7711;46.634;14.318;2023-11-21T04:17:40;2.70;1.00
15217;DHT22;7711;46.634;14.318;2023-11-21T04:20:08;2.70;1.00
15217;DHT22;7711;46.634;14.318;2023-11-21T04:22:37;2.80;1.00
15217;DHT22;7711;46.634;14.318;2023-11-21T04:25:09;2.80;1.00
15217;DHT22;7711;46.634;14.318;2023-11-21T04:27:36;2.80;1.00
15217;DHT22;7711;46.634;14.318;2023-11-21T04:30:04;2.80;1.00
15217;DHT22;7711;46.634;14.318;2023-11-21T04:32:32;2.80;1.00
15217;DHT22;7711;46.634;14.318;2023-11-21T04:34:59;2.90;1.00
15217;DHT22;7711;46.634;14.318;2023-11-21T04:37:26;2.90;1.00
15217;DHT22;7711;46.634;14.318;2023-11-21T04:39:53;3.00;1.00
15217;DHT22;7711;46.634;14.318;2023-11-21T04:42:21;3.00;1.00
15217;DHT22;7711;46.634;14.318;2023-11-21T04:44:48;3.00;1.00
15217;DHT22;7711;46.634;14.318;2023-11-21T04:47:15;3.00;1.00
15217;DHT22;7711;46.634;14.318;2023-11-21T04:49:46;3.00;1.00
15217;DHT22;7711;46.634;14.318;2023-11-21T04:52:13;3.00;3.10
15217;DHT22;7711;46.634;14.318;2023-11-21T04:54:40;3.10;5.60
15217;DHT22;7711;46.634;14.318;2023-11-21T04:57:08;3.00;1.00
15217;DHT22;7711;46.634;14.318;2023-11-21T04:59:36;3.00;1.00
15217;DHT22;7711;46.634;14.318;2023-11-21T05:02:04;3.00;1.00
15217;DHT22;7711;46.634;14.318;2023-11-21T05:04:31;3.00;1.00
15217;DHT22;7711;46.634;14.318;2023-11-21T05:06:58;3.00;1.00
15217;DHT22;7711;46.634;14.318;2023-11-21T05:09:26;3.10;1.00
15217;DHT22;7711;46.634;14.318;2023-11-21T05:11:57;3.00;1.00
15217;DHT22;7711;46.634;14.318;2023-11-21T05:14:25;3.00;1.00
15217;DHT22;7711;46.634;14.318;2023-11-21T05:16:54;3.00;1.00
15217;DHT22;7711;46.634;14.318;2023-11-21T05:19:21;3.00;1.00
15217;DHT22;7711;46.634;14.318;2023-11-21T05:21:48;3.00;1.00
15217;DHT22;7711;46.634;14.318;2023-11-21T05:24:15;3.00;1.20
15217;DHT22;7711;46.634;14.318;2023-11-21T05:26:42;3.00;1.00
15217;DHT22;7711;46.634;14.318;2023-11-21T05:29:09;3.00;1.00
15217;DHT22;7711;46.634;14.318;2023-11-21T05:31:36;3.00;1.00
15217;DHT22;7711;46.634;14.318;2023-11-21T05:34:04;3.00;1.00
15217;DHT22;7711;46.634;14.318;2023-11-21T05:36:31;3.00;1.00
15217;DHT22;7711;46.634;14.318;2023-11-21T05:38:59;3.00;1.00
15217;DHT22;7711;46.634;14.318;2023-11-21T05:41:26;2.90;1.00
15217;DHT22;7711;46.634;14.318;2023-11-21T05:43:53;2.90;1.00
15217;DHT22;7711;46.634;14.318;2023-11-21T05:46:20;2.90;1.00
15217;DHT22;7711;46.634;14.318;2023-11-21T05:48:47;3.00;1.00
15217;DHT22;7711;46.634;14.318;2023-11-21T05:51:15;3.00;1.00
15217;DHT22;7711;46.634;14.318;2023-11-21T05:53:43;2.90;1.00
15217;DHT22;7711;46.634;14.318;2023-11-21T05:56:10;2.90;1.00
15217;DHT22;7711;46.634;14.318;2023-11-21T05:58:37;3.00;1.00
15217;DHT22;7711;46.634;14.318;2023-11-21T06:01:05;3.00;1.00
15217;DHT22;7711;46.634;14.318;2023-11-21T06:03:33;3.00;1.00
15217;DHT22;7711;46.634;14.318;2023-11-21T06:06:00;3.00;1.00
15217;DHT22;7711;46.634;14.318;2023-11-21T06:08:28;3.00;1.00
15217;DHT22;7711;46.634;14.318;2023-11-21T06:10:55;3.00;1.00
15217;DHT22;7711;46.634;14.318;2023-11-21T06:13:22;2.90;1.00
15217;DHT22;7711;46.634;14.318;2023-11-21T06:15:50;2.90;1.00
15217;DHT22;7711;46.634;14.318;2023-11-21T06:18:17;2.90;1.00
15217;DHT22;7711;46.634;14.318;2023-11-21T06:20:45;3.00;1.00
15217;DHT22;7711;46.634;14.318;2023-11-21T06:23:12;2.90;1.00
15217;DHT22;7711;46.634;14.318;2023-11-21T06:25:41;2.90;1.00
15217;DHT22;7711;46.634;14.318;2023-11-21T06:28:08;2.90;1.00
15217;DHT22;7711;46.634;14.318;2023-11-21T06:30:35;2.90;1.00
15217;DHT22;7711;46.634;14.318;2023-11-21T06:33:02;2.80;1.00
15217;DHT22;7711;46.634;14.318;2023-11-21T06:35:29;2.90;1.00
15217;DHT22;7711;46.634;14.318;2023-11-21T06:37:59;2.90;1.00
15217;DHT22;7711;46.634;14.318;2023-11-21T06:40:26;2.90;1.00
15217;DHT22;7711;46.634;14.318;2023-11-21T06:42:55;2.90;1.00
15217;DHT22;7711;46.634;14.318;2023-11-21T06:45:24;3.00;1.00
15217;DHT22;7711;46.634;14.318;2023-11-21T06:47:51;2.90;1.00
15217;DHT22;7711;46.634;14.318;2023-11-21T06:50:18;3.00;1.00
15217;DHT22;7711;46.634;14.318;2023-11-21T06:52:46;3.00;1.00
15217;DHT22;7711;46.634;14.318;2023-11-21T06:55:14;3.10;1.00
15217;DHT22;7711;46.634;14.318;2023-11-21T06:57:41;3.10;1.00
15217;DHT22;7711;46.634;14.318;2023-11-21T07:00:11;3.10;1.00
15217;DHT22;7711;46.634;14.318;2023-11-21T07:02:38;3.10;1.00
15217;DHT22;7711;46.634;14.318;2023-11-21T07:05:05;3.20;1.00
15217;DHT22;7711;46.634;14.318;2023-11-21T07:07:32;3.30;1.00
15217;DHT22;7711;46.634;14.318;2023-11-21T07:10:01;3.30;1.00
15217;DHT22;7711;46.634;14.318;2023-11-21T07:12:29;3.30;1.00
15217;DHT22;7711;46.634;14.318;2023-11-21T07:14:56;3.40;1.00
15217;DHT22;7711;46.634;14.318;2023-11-21T07:17:25;3.40;1.00
15217;DHT22;7711;46.634;14.318;2023-11-21T07:19:52;3.40;1.00
15217;DHT22;7711;46.634;14.318;2023-11-21T07:22:19;3.40;1.00
15217;DHT22;7711;46.634;14.318;2023-11-21T07:24:48;3.40;1.00
15217;DHT22;7711;46.634;14.318;2023-11-21T07:27:16;3.50;1.00
15217;DHT22;7711;46.634;14.318;2023-11-21T07:29:43;3.50;1.00
15217;DHT22;7711;46.634;14.318;2023-11-21T07:32:11;3.50;1.00
15217;DHT22;7711;46.634;14.318;2023-11-21T07:34:40;3.60;1.00
15217;DHT22;7711;46.634;14.318;2023-11-21T07:37:07;3.60;1.00
15217;DHT22;7711;46.634;14.318;2023-11-21T07:39:35;3.60;1.00
15217;DHT22;7711;46.634;14.318;2023-11-21T07:42:02;3.60;1.00
15217;DHT22;7711;46.634;14.318;2023-11-21T07:44:30;3.60;1.00
15217;DHT22;7711;46.634;14.318;2023-11-21T07:46:57;3.70;1.00
15217;DHT22;7711;46.634;14.318;2023-11-21T07:49:24;3.60;1.00
15217;DHT22;7711;46.634;14.318;2023-11-21T07:51:53;3.70;1.00
15217;DHT22;7711;46.634;14.318;2023-11-21T07:54:20;3.70;1.00
15217;DHT22;7711;46.634;14.318;2023-11-21T07:56:48;3.80;1.00
15217;DHT22;7711;46.634;14.318;2023-11-21T07:59:15;3.90;99.90
15217;DHT22;7711;46.634;14.318;2023-11-21T08:01:42;3.80;99.90
15217;DHT22;7711;46.634;14.318;2023-11-21T08:04:11;3.80;99.90
15217;DHT22;7711;46.634;14.318;2023-11-21T08:06:38;4.00;99.90
15217;DHT22;7711;46.634;14.318;2023-11-21T08:09:08;3.90;99.90
15217;DHT22;7711;46.634;14.318;2023-11-21T08:11:37;4.00;99.90
15217;DHT22;7711;46.634;14.318;2023-11-21T08:14:04;4.00;99.90
15217;DHT22;7711;46.634;14.318;2023-11-21T08:16:31;4.10;99.90
15217;DHT22;7711;46.634;14.318;2023-11-21T08:18:59;4.20;99.90
15217;DHT22;7711;46.634;14.318;2023-11-21T08:21:26;4.20;99.90
15217;DHT22;7711;46.634;14.318;2023-11-21T08:23:54;4.30;99.90
15217;DHT22;7711;46.634;14.318;2023-11-21T08:26:24;4.30;99.90
15217;DHT22;7711;46.634;14.318;2023-11-21T08:28:51;4.20;99.90
15217;DHT22;7711;46.634;14.318;2023-11-21T08:31:24;4.30;99.90
15217;DHT22;7711;46.634;14.318;2023-11-21T08:33:51;4.30;39.40
15217;DHT22;7711;46.634;14.318;2023-11-21T08:36:21;4.30;1.00
15217;DHT22;7711;46.634;14.318;2023-11-21T08:38:48;4.40;1.00
15217;DHT22;7711;46.634;14.318;2023-11-21T08:41:15;4.40;1.00
15217;DHT22;7711;46.634;14.318;2023-11-21T08:43:44;4.30;1.00
15217;DHT22;7711;46.634;14.318;2023-11-21T08:46:10;4.40;39.20
15217;DHT22;7711;46.634;14.318;2023-11-21T08:48:38;4.50;35.20
15217;DHT22;7711;46.634;14.318;2023-11-21T08:51:05;4.50;19.80
15217;DHT22;7711;46.634;14.318;2023-11-21T08:53:32;4.60;10.60
15217;DHT22;7711;46.634;14.318;2023-11-21T08:55:59;4.60;1.00
15217;DHT22;7711;46.634;14.318;2023-11-21T08:58:26;4.70;1.00
15217;DHT22;7711;46.634;14.318;2023-11-21T09:00:55;4.70;1.00
15217;DHT22;7711;46.634;14.318;2023-11-21T09:03:22;4.50;1.00
15217;DHT22;7711;46.634;14.318;2023-11-21T09:05:50;4.50;1.00
15217;DHT22;7711;46.634;14.318;2023-11-21T09:08:17;4.60;1.00
15217;DHT22;7711;46.634;14.318;2023-11-21T09:10:45;4.50;1.00
15217;DHT22;7711;46.634;14.318;2023-11-21T09:13:13;4.60;1.00
15217;DHT22;7711;46.634;14.318;2023-11-21T09:15:42;4.70;22.20
15217;DHT22;7711;46.634;14.318;2023-11-21T09:18:13;4.70;37.80
15217;DHT22;7711;46.634;14.318;2023-11-21T09:20:40;4.80;33.80
15217;DHT22;7711;46.634;14.318;2023-11-21T09:23:08;4.80;1.00
15217;DHT22;7711;46.634;14.318;2023-11-21T09:25:35;4.80;1.00
15217;DHT22;7711;46.634;14.318;2023-11-21T09:28:03;4.70;1.00
15217;DHT22;7711;46.634;14.318;2023-11-21T09:30:33;4.70;1.00
15217;DHT22;7711;46.634;14.318;2023-11-21T09:33:00;4.70;1.00
15217;DHT22;7711;46.634;14.318;2023-11-21T09:35:29;4.60;1.00
15217;DHT22;7711;46.634;14.318;2023-11-21T09:37:56;4.70;1.00
15217;DHT22;7711;46.634;14.318;2023-11-21T09:40:23;4.70;1.00
15217;DHT22;7711;46.634;14.318;2023-11-21T09:42:54;4.80;1.00
15217;DHT22;7711;46.634;14.318;2023-11-21T09:45:25;4.70;1.00
15217;DHT22;7711;46.634;14.318;2023-11-21T09:47:53;4.70;1.00
15217;DHT22;7711;46.634;14.318;2023-11-21T09:50:21;4.80;1.00
15217;DHT22;7711;46.634;14.318;2023-11-21T09:52:58;4.80;1.00
15217;DHT22;7711;46.634;14.318;2023-11-21T09:55:34;4.90;1.00
15217;DHT22;7711;46.634;14.318;2023-11-21T09:58:03;4.80;1.00
15217;DHT22;7711;46.634;14.318;2023-11-21T10:00:33;4.90;1.00
15217;DHT22;7711;46.634;14.318;2023-11-21T10:03:00;5.00;26.40
15217;DHT22;7711;46.634;14.318;2023-11-21T10:05:28;5.10;27.20
15217;DHT22;7711;46.634;14.318;2023-11-21T10:08:00;5.00;4.10
15217;DHT22;7711;46.634;14.318;2023-11-21T10:10:29;5.10;1.00
15217;DHT22;7711;46.634;14.318;2023-11-21T10:13:01;5.10;1.00
15217;DHT22;7711;46.634;14.318;2023-11-21T10:15:29;5.10;1.00
15217;DHT22;7711;46.634;14.318;2023-11-21T10:18:02;5.20;1.00
15217;DHT22;7711;46.634;14.318;2023-11-21T10:20:30;5.10;1.00
15217;DHT22;7711;46.634;14.318;2023-11-21T10:23:01;5.20;1.00
15217;DHT22;7711;46.634;14.318;2023-11-21T10:25:29;5.30;1.00
15217;DHT22;7711;46.634;14.318;2023-11-21T10:27:58;5.40;1.00
15217;DHT22;7711;46.634;14.318;2023-11-21T10:30:32;5.40;1.00
15217;DHT22;7711;46.634;14.318;2023-11-21T10:33:03;5.20;1.00
15217;DHT22;7711;46.634;14.318;2023-11-21T10:35:43;5.30;1.00
15217;DHT22;7711;46.634;14.318;2023-11-21T10:38:14;5.40;1.00
15217;DHT22;7711;46.634;14.318;2023-11-21T10:40:41;5.40;1.00
15217;DHT22;7711;46.634;14.318;2023-11-21T10:43:10;5.50;1.00
15217;DHT22;7711;46.634;14.318;2023-11-21T10:45:38;5.50;1.00
15217;DHT22;7711;46.634;14.318;2023-11-21T10:48:06;5.30;1.00
15217;DHT22;7711;46.634;14.318;2023-11-21T10:50:34;5.30;1.00
15217;DHT22;7711;46.634;14.318;2023-11-21T10:53:02;5.40;1.00
15217;DHT22;7711;46.634;14.318;2023-11-21T10:55:32;5.30;1.00
15217;DHT22;7711;46.634;14.318;2023-11-21T10:58:01;5.40;1.00
15217;DHT22;7711;46.634;14.318;2023-11-21T11:00:29;5.30;1.00
15217;DHT22;7711;46.634;14.318;2023-11-21T11:02:56;5.40;1.00
15217;DHT22;7711;46.634;14.318;2023-11-21T11:05:26;5.50;1.00
15217;DHT22;7711;46.634;14.318;2023-11-21T11:07:58;5.70;1.00
15217;DHT22;7711;46.634;14.318;2023-11-21T11:10:27;5.60;1.00
15217;DHT22;7711;46.634;14.318;2023-11-21T11:12:56;5.60;1.00
15217;DHT22;7711;46.634;14.318;2023-11-21T11:15:24;5.60;1.00
15217;DHT22;7711;46.634;14.318;2023-11-21T11:17:52;5.60;1.00
15217;DHT22;7711;46.634;14.318;2023-11-21T11:20:23;5.50;1.00
15217;DHT22;7711;46.634;14.318;2023-11-21T11:22:59;5.50;1.00
15217;DHT22;7711;46.634;14.318;2023-11-21T11:25:43;5.60;1.00
15217;DHT22;7711;46.634;14.318;2023-11-21T11:28:19;5.60;1.00
15217;DHT22;7711;46.634;14.318;2023-11-21T11:30:56;5.70;1.00
15217;DHT22;7711;46.634;14.318;2023-11-21T11:33:34;5.60;1.00
15217;DHT22;7711;46.634;14.318;2023-11-21T11:36:06;5.70;1.00
15217;DHT22;7711;46.634;14.318;2023-11-21T11:38:35;5.70;1.00
15217;DHT22;7711;46.634;14.318;2023-11-21T11:41:03;5.70;1.00
15217;DHT22;7711;46.634;14.318;2023-11-21T11:43:32;5.70;1.00
15217;DHT22;7711;46.634;14.318;2023-11-21T11:46:05;5.90;4.90
15217;DHT22;7711;46.634;14.318;2023-11-21T11:48:37;5.80;1.00
15217;DHT22;7711;46.634;14.318;2023-11-21T11:51:06;5.90;1.00
15217;DHT22;7711;46.634;14.318;2023-11-21T11:53:39;5.80;1.00
15217;DHT22;7711;46.634;14.318;2023-11-21T11:56:26;5.80;1.00
15217;DHT22;7711;46.634;14.318;2023-11-21T11:58:58;5.70;1.00
15217;DHT22;7711;46.634;14.318;2023-11-21T12:01:28;5.60;1.00
15217;DHT22;7711;46.634;14.318;2023-11-21T12:07:00;5.70;1.00
15217;DHT22;7711;46.634;14.318;2023-11-21T12:09:30;5.70;1.00
15217;DHT22;7711;46.634;14.318;2023-11-21T12:11:58;5.70;1.00
15217;DHT22;7711;46.634;14.318;2023-11-21T12:14:27;5.70;1.00
15217;DHT22;7711;46.634;14.318;2023-11-21T12:16:54;5.80;1.00
15217;DHT22;7711;46.634;14.318;2023-11-21T12:19:21;5.80;1.00
15217;DHT22;7711;46.634;14.318;2023-11-21T12:21:49;5.80;1.00
15217;DHT22;7711;46.634;14.318;2023-11-21T12:24:17;5.80;1.00
15217;DHT22;7711;46.634;14.318;2023-11-21T12:26:44;5.70;1.00
15217;DHT22;7711;46.634;14.318;2023-11-21T12:29:11;5.70;1.00
15217;DHT22;7711;46.634;14.318;2023-11-21T12:31:40;5.80;1.00
15217;DHT22;7711;46.634;14.318;2023-11-21T12:34:07;5.90;1.00
15217;DHT22;7711;46.634;14.318;2023-11-21T12:36:37;6.00;1.00
15217;DHT22;7711;46.634;14.318;2023-11-21T12:39:04;6.10;1.00
15217;DHT22;7711;46.634;14.318;2023-11-21T12:41:34;6.00;1.00
15217;DHT22;7711;46.634;14.318;2023-11-21T12:44:01;5.90;1.00
15217;DHT22;7711;46.634;14.318;2023-11-21T12:46:28;6.00;1.00
15217;DHT22;7711;46.634;14.318;2023-11-21T12:49:00;6.10;1.00
15217;DHT22;7711;46.634;14.318;2023-11-21T12:51:27;6.00;1.00
15217;DHT22;7711;46.634;14.318;2023-11-21T12:53:55;6.00;1.00
15217;DHT22;7711;46.634;14.318;2023-11-21T12:56:24;6.00;1.00
15217;DHT22;7711;46.634;14.318;2023-11-21T12:58:54;6.10;1.00
15217;DHT22;7711;46.634;14.318;2023-11-21T13:01:25;6.00;1.00
15217;DHT22;7711;46.634;14.318;2023-11-21T13:03:54;6.00;1.00
15217;DHT22;7711;46.634;14.318;2023-11-21T13:06:22;6.10;1.00
15217;DHT22;7711;46.634;14.318;2023-11-21T13:08:50;6.20;1.00
15217;DHT22;7711;46.634;14.318;2023-11-21T13:11:18;6.30;1.00
15217;DHT22;7711;46.634;14.318;2023-11-21T13:13:45;6.30;1.00
15217;DHT22;7711;46.634;14.318;2023-11-21T13:16:12;6.30;1.00
15217;DHT22;7711;46.634;14.318;2023-11-21T13:18:41;6.20;1.00
15217;DHT22;7711;46.634;14.318;2023-11-21T13:21:09;6.20;1.00
15217;DHT22;7711;46.634;14.318;2023-11-21T13:23:41;6.20;1.00
15217;DHT22;7711;46.634;14.318;2023-11-21T13:26:09;6.10;1.00
15217;DHT22;7711;46.634;14.318;2023-11-21T13:28:37;6.20;1.00
15217;DHT22;7711;46.634;14.318;2023-11-21T13:31:06;6.30;1.00
15217;DHT22;7711;46.634;14.318;2023-11-21T13:33:46;6.30;1.00
15217;DHT22;7711;46.634;14.318;2023-11-21T13:36:17;6.30;1.00
15217;DHT22;7711;46.634;14.318;2023-11-21T13:38:49;6.30;1.00
15217;DHT22;7711;46.634;14.318;2023-11-21T13:41:18;6.30;1.00
15217;DHT22;7711;46.634;14.318;2023-11-21T13:43:45;6.40;1.00
15217;DHT22;7711;46.634;14.318;2023-11-21T13:46:18;6.40;1.00
15217;DHT22;7711;46.634;14.318;2023-11-21T13:48:47;6.40;1.00
15217;DHT22;7711;46.634;14.318;2023-11-21T13:51:16;6.40;1.00
15217;DHT22;7711;46.634;14.318;2023-11-21T13:53:44;6.30;1.00
15217;DHT22;7711;46.634;14.318;2023-11-21T13:56:14;6.20;1.00
15217;DHT22;7711;46.634;14.318;2023-11-21T13:58:45;6.10;1.00
15217;DHT22;7711;46.634;14.318;2023-11-21T14:01:17;6.10;1.00
15217;DHT22;7711;46.634;14.318;2023-11-21T14:04:07;6.10;1.00
15217;DHT22;7711;46.634;14.318;2023-11-21T14:06:45;6.10;1.00
15217;DHT22;7711;46.634;14.318;2023-11-21T14:09:14;6.10;1.00
15217;DHT22;7711;46.634;14.318;2023-11-21T14:11:50;6.10;1.00
15217;DHT22;7711;46.634;14.318;2023-11-21T14:14:19;6.10;1.00
15217;DHT22;7711;46.634;14.318;2023-11-21T14:16:46;6.00;1.00
15217;DHT22;7711;46.634;14.318;2023-11-21T14:19:13;6.00;1.00
15217;DHT22;7711;46.634;14.318;2023-11-21T14:21:43;5.80;1.00
15217;DHT22;7711;46.634;14.318;2023-11-21T14:24:11;5.80;1.00
15217;DHT22;7711;46.634;14.318;2023-11-21T14:26:40;5.80;1.00
15217;DHT22;7711;46.634;14.318;2023-11-21T14:29:09;5.70;1.00
15217;DHT22;7711;46.634;14.318;2023-11-21T14:31:40;5.70;1.00
15217;DHT22;7711;46.634;14.318;2023-11-21T14:34:07;5.60;1.00
15217;DHT22;7711;46.634;14.318;2023-11-21T14:36:35;5.60;1.00
15217;DHT22;7711;46.634;14.318;2023-11-21T14:39:02;5.50;1.00
15217;DHT22;7711;46.634;14.318;2023-11-21T14:41:32;5.50;1.00
15217;DHT22;7711;46.634;14.318;2023-11-21T14:44:01;5.40;1.00
15217;DHT22;7711;46.634;14.318;2023-11-21T14:46:29;5.40;17.10
15217;DHT22;7711;46.634;14.318;2023-11-21T14:48:56;5.40;84.80
15217;DHT22;7711;46.634;14.318;2023-11-21T14:51:33;5.40;99.90
15217;DHT22;7711;46.634;14.318;2023-11-21T14:54:20;5.30;99.90
15217;DHT22;7711;46.634;14.318;2023-11-21T14:57:01;5.30;99.90
15217;DHT22;7711;46.634;14.318;2023-11-21T14:59:27;5.30;99.90
15217;DHT22;7711;46.634;14.318;2023-11-21T15:01:55;5.20;99.90
15217;DHT22;7711;46.634;14.318;2023-11-21T15:04:22;5.20;99.90
15217;DHT22;7711;46.634;14.318;2023-11-21T15:06:58;5.20;99.90
15217;DHT22;7711;46.634;14.318;2023-11-21T15:09:25;5.20;99.90
15217;DHT22;7711;46.634;14.318;2023-11-21T15:12:01;5.10;99.90
15217;DHT22;7711;46.634;14.318;2023-11-21T15:14:38;5.20;99.90
15217;DHT22;7711;46.634;14.318;2023-11-21T15:17:05;5.10;1.00
15217;DHT22;7711;46.634;14.318;2023-11-21T15:19:33;5.30;1.00
15217;DHT22;7711;46.634;14.318;2023-11-21T15:22:01;5.10;1.00
15217;DHT22;7711;46.634;14.318;2023-11-21T15:24:28;5.10;1.00
15217;DHT22;7711;46.634;14.318;2023-11-21T15:26:55;5.10;1.00
15217;DHT22;7711;46.634;14.318;2023-11-21T15:29:22;5.00;1.00
15217;DHT22;7711;46.634;14.318;2023-11-21T15:31:50;5.00;1.00
15217;DHT22;7711;46.634;14.318;2023-11-21T15:34:22;5.00;1.00
15217;DHT22;7711;46.634;14.318;2023-11-21T15:36:51;5.00;1.00
15217;DHT22;7711;46.634;14.318;2023-11-21T15:39:20;4.90;1.00
15217;DHT22;7711;46.634;14.318;2023-11-21T15:41:51;5.00;1.00
15217;DHT22;7711;46.634;14.318;2023-11-21T15:44:18;5.00;1.00
15217;DHT22;7711;46.634;14.318;2023-11-21T15:46:45;5.00;1.00
15217;DHT22;7711;46.634;14.318;2023-11-21T15:49:13;5.00;1.00
15217;DHT22;7711;46.634;14.318;2023-11-21T15:51:45;5.00;1.00
15217;DHT22;7711;46.634;14.318;2023-11-21T15:54:13;5.00;1.00
15217;DHT22;7711;46.634;14.318;2023-11-21T15:56:40;5.00;1.00
15217;DHT22;7711;46.634;14.318;2023-11-21T15:59:07;5.00;1.00
15217;DHT22;7711;46.634;14.318;2023-11-21T16:01:35;5.00;1.00
15217;DHT22;7711;46.634;14.318;2023-11-21T16:04:07;5.00;1.00
15217;DHT22;7711;46.634;14.318;2023-11-21T16:06:34;5.00;1.00
15217;DHT22;7711;46.634;14.318;2023-11-21T16:09:06;4.90;1.00